createdAt,value
2023-06-06T00:02:34.478Z,97813.56
2023-06-06T00:05:36.804Z,97812.53
2023-06-06T00:08:39.213Z,97807.69
2023-06-06T00:11:43.897Z,97806.06
2023-06-06T00:14:47.701Z,97810.88
2023-06-06T00:17:50.135Z,97803.41
2023-06-06T00:20:52.641Z,97809.84
2023-06-06T00:23:56.477Z,97805.50
2023-06-06T00:26:58.681Z,97817.59
2023-06-06T00:30:01.041Z,97808.75
2023-06-06T00:33:03.346Z,97807.13
2023-06-06T00:36:06.249Z,97800.13
2023-06-06T00:39:08.541Z,97801.78
2023-06-06T00:42:10.934Z,97799.09
2023-06-06T00:45:14.046Z,97801.50
2023-06-06T00:48:17.747Z,97797.22
2023-06-06T00:51:20.097Z,97797.22
2023-06-06T00:54:22.977Z,97793.47
2023-06-06T00:57:28.191Z,97794.53
2023-06-06T01:00:34.046Z,97787.28
2023-06-06T01:03:36.561Z,97783.53
2023-06-06T01:06:38.847Z,97782.72
2023-06-06T01:09:42.219Z,97768.50
2023-06-06T01:12:54.811Z,97781.94
2023-06-06T01:16:02.771Z,97775.47
2023-06-06T01:19:06.981Z,97743.75
2023-06-06T01:22:13.570Z,97781.94
2023-06-06T01:25:23.091Z,97758.78
2023-06-06T01:28:29.100Z,97767.09
2023-06-06T01:31:40.476Z,97780.56
2023-06-06T01:34:55.740Z,97784.59
2023-06-06T01:38:08.616Z,97783.78
2023-06-06T01:41:16.102Z,97754.25
2023-06-06T01:44:19.658Z,97780.56
2023-06-06T01:47:23.108Z,97770.59
2023-06-06T01:50:26.255Z,97777.03
2023-06-06T01:53:30.054Z,97777.81
2023-06-06T01:56:35.137Z,97772.47
2023-06-06T01:59:38.543Z,97761.22
2023-06-06T02:02:41.820Z,97774.63
2023-06-06T02:05:44.201Z,97772.75
2023-06-06T02:08:46.429Z,97764.13
2023-06-06T02:11:48.975Z,97767.91
2023-06-06T02:14:51.248Z,97767.91
2023-06-06T02:17:56.625Z,97772.47
2023-06-06T02:20:58.973Z,97766.56
2023-06-06T02:24:01.385Z,97762.03
2023-06-06T02:27:05.112Z,97738.94
2023-06-06T02:30:11.521Z,97762.03
2023-06-06T02:33:13.764Z,97761.47
2023-06-06T02:36:18.752Z,97767.09
2023-06-06T02:39:22.554Z,97764.69
2023-06-06T02:42:25.001Z,97763.09
2023-06-06T02:45:27.630Z,97755.56
2023-06-06T02:48:29.959Z,97752.34
2023-06-06T02:51:32.249Z,97746.69
2023-06-06T02:54:35.026Z,97728.38
2023-06-06T02:57:37.312Z,97758.47
2023-06-06T03:00:39.754Z,97753.09
2023-06-06T03:03:42.508Z,97729.22
2023-06-06T03:06:44.971Z,97728.38
2023-06-06T03:09:47.744Z,97749.59
2023-06-06T03:12:53.765Z,97754.94
2023-06-06T03:15:58.038Z,97755.22
2023-06-06T03:19:01.349Z,97754.91
2023-06-06T03:22:04.396Z,97762.16
2023-06-06T03:25:10.574Z,97768.31
2023-06-06T03:28:14.217Z,97762.69
2023-06-06T03:31:17.993Z,97752.19
2023-06-06T03:34:26.996Z,97765.38
2023-06-06T03:37:31.351Z,97764.03
2023-06-06T03:40:33.687Z,97760.56
2023-06-06T03:43:37.285Z,97759.47
2023-06-06T03:46:41.047Z,97754.13
2023-06-06T03:49:43.530Z,97741.78
2023-06-06T03:52:46.324Z,97738.84
2023-06-06T03:55:48.580Z,97738.34
2023-06-06T03:58:51.348Z,97745.28
2023-06-06T04:01:54.717Z,97758.44
2023-06-06T04:05:03.188Z,97740.72
2023-06-06T04:08:08.505Z,97762.19
2023-06-06T04:11:11.151Z,97749.09
2023-06-06T04:14:14.908Z,97737.00
2023-06-06T04:17:17.121Z,97744.78
2023-06-06T04:20:20.583Z,97757.44
2023-06-06T04:23:23.678Z,97742.66
2023-06-06T04:26:28.617Z,97766.56
2023-06-06T04:29:35.511Z,97756.63
2023-06-06T04:32:38.407Z,97752.59
2023-06-06T04:35:44.190Z,97719.88
2023-06-06T04:38:50.392Z,97755.34
2023-06-06T04:41:55.466Z,97740.56
2023-06-06T04:44:59.233Z,97756.44
2023-06-06T04:48:01.886Z,97734.13
2023-06-06T04:51:04.262Z,97762.34
2023-06-06T04:54:08.997Z,97756.97
2023-06-06T04:57:21.047Z,97753.50
2023-06-06T05:00:24.509Z,97760.22
2023-06-06T05:03:29.370Z,97755.66
2023-06-06T05:06:32.770Z,97764.50
2023-06-06T05:09:35.168Z,97762.09
2023-06-06T05:12:37.566Z,97759.69
2023-06-06T05:15:39.875Z,97765.59
2023-06-06T05:18:42.161Z,97768.28
2023-06-06T05:21:44.614Z,97736.34
2023-06-06T05:24:46.873Z,97768.84
2023-06-06T05:27:50.176Z,97768.03
2023-06-06T05:30:57.658Z,97770.72
2023-06-06T05:34:00.149Z,97780.09
2023-06-06T05:37:02.600Z,97747.09
2023-06-06T05:40:06.153Z,97766.94
2023-06-06T05:43:08.825Z,97769.34
2023-06-06T05:46:11.507Z,97769.09
2023-06-06T05:49:13.602Z,97767.19
2023-06-06T05:52:15.852Z,97779.25
2023-06-06T05:55:35.179Z,97783.56
2023-06-06T05:58:38.070Z,97766.41
2023-06-06T06:01:44.316Z,97778.19
2023-06-06T06:04:47.330Z,97765.31
2023-06-06T06:07:51.338Z,97765.56
2023-06-06T06:10:54.007Z,97743.53
2023-06-06T06:13:56.255Z,97778.16
2023-06-06T06:16:58.609Z,97780.28
2023-06-06T06:20:04.819Z,97788.59
2023-06-06T06:23:07.589Z,97774.38
2023-06-06T06:26:10.443Z,97770.59
2023-06-06T06:29:12.756Z,97779.44
2023-06-06T06:32:15.300Z,97778.91
2023-06-06T06:35:17.583Z,97769.25
2023-06-06T06:38:19.790Z,97791.75
2023-06-06T06:41:23.226Z,97792.78
2023-06-06T06:44:25.986Z,97796.22
2023-06-06T06:47:28.456Z,97803.69
2023-06-06T06:50:30.849Z,97790.28
2023-06-06T06:53:33.384Z,97801.56
2023-06-06T06:56:38.714Z,97792.94
2023-06-06T06:59:42.735Z,97804.75
2023-06-06T07:02:46.609Z,97817.13
2023-06-06T07:05:48.962Z,97807.19
2023-06-06T07:08:53.544Z,97803.69
2023-06-06T07:11:55.999Z,97781.44
2023-06-06T07:14:58.299Z,97763.47
2023-06-06T07:18:01.115Z,97808.50
2023-06-06T07:21:03.732Z,97810.09
2023-06-06T07:24:07.012Z,97816.00
2023-06-06T07:27:10.248Z,97804.41
2023-06-06T07:30:16.185Z,97808.72
2023-06-06T07:33:18.616Z,97806.50
2023-06-06T07:36:21.358Z,97808.91
2023-06-06T07:39:23.605Z,97805.38
2023-06-06T07:42:25.745Z,97806.19
2023-06-06T07:45:29.947Z,97813.13
2023-06-06T07:48:32.180Z,97801.59
2023-06-06T07:51:34.503Z,97807.19
2023-06-06T07:54:36.766Z,97808.00
2023-06-06T07:57:42.512Z,97783.88
2023-06-06T08:00:46.541Z,97794.03
2023-06-06T08:03:52.637Z,97799.34
2023-06-06T08:06:55.475Z,97799.09
2023-06-06T08:09:58.084Z,97806.75
2023-06-06T08:13:05.296Z,97796.97
2023-06-06T08:16:07.542Z,97762.16
2023-06-06T08:19:09.804Z,97800.19
2023-06-06T08:22:12.829Z,97793.44
2023-06-06T08:25:15.028Z,97798.00
2023-06-06T08:28:17.384Z,97799.25
2023-06-06T08:31:20.583Z,97801.03
2023-06-06T08:34:24.015Z,97799.09
2023-06-06T08:37:26.268Z,97804.88
2023-06-06T08:40:28.621Z,97794.09
2023-06-06T08:43:38.114Z,97803.69
2023-06-06T08:46:41.826Z,97806.16
2023-06-06T08:49:45.702Z,97813.41
2023-06-06T08:52:50.470Z,97801.75
2023-06-06T08:55:58.026Z,97807.47
2023-06-06T08:59:00.696Z,97781.59
2023-06-06T09:02:03.177Z,97814.09
2023-06-06T09:05:06.585Z,97817.38
2023-06-06T09:08:09.835Z,97821.19
2023-06-06T09:11:12.829Z,97781.25
2023-06-06T09:14:15.694Z,97784.44
2023-06-06T09:17:18.155Z,97813.69
2023-06-06T09:20:20.492Z,97814.28
2023-06-06T09:23:22.946Z,97819.97
2023-06-06T09:26:25.494Z,97824.88
2023-06-06T09:29:27.893Z,97817.88
2023-06-06T09:32:31.412Z,97814.97
2023-06-06T09:35:38.802Z,97815.00
2023-06-06T09:38:41.065Z,97823.19
2023-06-06T09:41:48.104Z,97824.31
2023-06-06T09:44:50.436Z,97823.75
2023-06-06T09:47:52.692Z,97792.72
2023-06-06T09:50:56.470Z,97799.16
2023-06-06T09:54:02.098Z,97814.78
2023-06-06T09:57:16.102Z,97818.59
2023-06-06T10:00:19.640Z,97819.16
2023-06-06T10:03:23.922Z,97820.53
2023-06-06T10:06:34.943Z,97821.56
2023-06-06T10:09:38.016Z,97823.44
2023-06-06T10:12:41.441Z,97825.31
2023-06-06T10:15:44.843Z,97820.19
2023-06-06T10:18:48.399Z,97815.59
2023-06-06T10:21:53.086Z,97815.56
2023-06-06T10:24:55.614Z,97825.75
2023-06-06T10:28:06.684Z,97821.44
2023-06-06T10:31:17.966Z,97824.63
2023-06-06T10:34:25.331Z,97819.75
2023-06-06T10:37:27.882Z,97810.84
2023-06-06T10:40:43.148Z,97814.53
2023-06-06T10:43:48.050Z,97815.31
2023-06-06T10:46:51.660Z,97806.06
2023-06-06T10:50:13.603Z,97810.88
2023-06-06T10:53:20.094Z,97812.13
2023-06-06T10:56:38.295Z,97790.94
2023-06-06T10:59:54.323Z,97799.13
2023-06-06T11:03:17.722Z,97780.31
2023-06-06T11:06:26.523Z,97786.69
2023-06-06T11:09:36.235Z,97779.94
2023-06-06T11:12:39.925Z,97804.59
2023-06-06T11:15:59.864Z,97808.91
2023-06-06T11:19:12.192Z,97803.53
2023-06-06T11:25:52.591Z,97793.91
2023-06-06T11:29:00.903Z,97803.25
2023-06-06T11:32:04.660Z,97796.66
2023-06-06T11:35:10.581Z,97802.22
2023-06-06T11:38:12.951Z,97795.31
2023-06-06T11:41:15.315Z,97763.88
2023-06-06T11:44:19.283Z,97747.50
2023-06-06T11:47:31.359Z,97769.38
2023-06-06T11:50:33.801Z,97766.13
2023-06-06T11:53:36.386Z,97765.81
2023-06-06T11:56:39.115Z,97784.31
2023-06-06T11:59:41.314Z,97786.69
2023-06-06T12:02:50.325Z,97786.47
2023-06-06T12:06:00.619Z,97784.50
2023-06-06T12:09:03.545Z,97778.59
2023-06-06T12:12:07.170Z,97770.75
2023-06-06T12:15:09.876Z,97759.50
2023-06-06T12:18:14.781Z,97780.94
2023-06-06T12:21:19.548Z,97775.28
2023-06-06T12:24:31.023Z,97758.41
2023-06-06T12:27:38.350Z,97775.53
2023-06-06T12:30:45.745Z,97749.88
2023-06-06T12:33:48.153Z,97775.84
2023-06-06T12:36:53.410Z,97750.19
2023-06-06T12:39:55.723Z,97741.84
2023-06-06T12:43:04.716Z,97774.97
2023-06-06T12:46:07.052Z,97767.75
2023-06-06T12:49:10.327Z,97772.63
2023-06-06T12:52:13.895Z,97766.00
2023-06-06T12:55:16.683Z,97782.56
2023-06-06T12:58:19.095Z,97776.44
2023-06-06T13:01:24.016Z,97772.13
2023-06-06T13:04:27.335Z,97732.53
2023-06-06T13:07:29.850Z,97773.91
2023-06-06T13:10:32.227Z,97763.97
2023-06-06T13:13:34.711Z,97775.75
2023-06-06T13:16:41.118Z,97773.63
2023-06-06T13:19:44.816Z,97764.66
2023-06-06T13:22:47.127Z,97766.91
2023-06-06T13:25:52.691Z,97763.03
2023-06-06T13:28:55.700Z,97763.03
2023-06-06T13:31:57.994Z,97749.09
2023-06-06T13:35:00.784Z,97753.28
2023-06-06T13:38:03.037Z,97749.06
2023-06-06T13:41:05.839Z,97755.94
2023-06-06T13:44:08.122Z,97730.06
2023-06-06T13:47:10.908Z,97739.50
2023-06-06T13:50:13.368Z,97743.09
2023-06-06T13:53:16.411Z,97748.34
2023-06-06T13:56:18.812Z,97754.31
2023-06-06T13:59:22.093Z,97744.16
2023-06-06T14:02:25.493Z,97746.47
2023-06-06T14:05:28.427Z,97743.38
2023-06-06T14:08:31.596Z,97749.66
2023-06-06T14:11:34.619Z,97753.78
2023-06-06T14:14:37.690Z,97758.13
2023-06-06T14:17:40.314Z,97743.16
2023-06-06T14:21:11.991Z,97760.63
2023-06-06T14:24:15.542Z,97763.56
2023-06-06T14:27:18.431Z,97760.31
2023-06-06T14:30:23.723Z,97739.13
2023-06-06T14:33:26.313Z,97755.13
2023-06-06T14:36:28.752Z,97761.34
2023-06-06T14:39:31.117Z,97761.56
2023-06-06T14:42:33.343Z,97763.44
2023-06-06T14:45:35.637Z,97756.09
2023-06-06T14:48:40.909Z,97759.59
2023-06-06T14:51:43.695Z,97761.84
2023-06-06T14:54:48.468Z,97760.88
2023-06-06T14:57:50.852Z,97760.78
2023-06-06T15:00:53.134Z,97758.06
2023-06-06T15:03:57.205Z,97758.94
2023-06-06T15:06:59.503Z,97767.88
2023-06-06T15:10:01.662Z,97760.13
2023-06-06T15:13:03.979Z,97739.78
2023-06-06T15:16:09.811Z,97748.06
2023-06-06T15:19:13.534Z,97744.06
2023-06-06T15:22:19.506Z,97734.50
2023-06-06T15:25:21.960Z,97732.66
2023-06-06T15:28:27.914Z,97706.19
2023-06-06T15:31:30.330Z,97733.22
2023-06-06T15:34:33.665Z,97730.81
2023-06-06T15:37:35.966Z,97737.53
2023-06-06T15:40:38.210Z,97725.72
2023-06-06T15:43:40.470Z,97692.41
2023-06-06T15:46:42.841Z,97732.31
2023-06-06T15:49:45.277Z,97735.59
2023-06-06T15:52:48.039Z,97731.72
2023-06-06T15:55:50.426Z,97749.75
2023-06-06T15:58:57.852Z,97752.22
2023-06-06T16:02:00.314Z,97755.47
2023-06-06T16:05:02.637Z,97757.09
2023-06-06T16:08:05.280Z,97758.78
2023-06-06T16:11:08.556Z,97750.41
2023-06-06T16:14:11.440Z,97739.78
2023-06-06T16:17:14.878Z,97742.72
2023-06-06T16:20:19.937Z,97762.50
2023-06-06T16:23:22.359Z,97755.53
2023-06-06T16:26:24.882Z,97765.47
2023-06-06T16:29:28.747Z,97762.00
2023-06-06T16:32:31.547Z,97768.97
2023-06-06T16:35:35.970Z,97772.75
2023-06-06T16:38:39.898Z,97764.97
2023-06-06T16:41:42.277Z,97778.16
2023-06-06T16:44:44.872Z,97784.63
2023-06-06T16:47:47.526Z,97790.53
2023-06-06T16:50:50.873Z,97789.75
2023-06-06T16:53:53.232Z,97790.03
2023-06-06T16:56:55.847Z,97764.81
2023-06-06T16:59:58.423Z,97786.00
2023-06-06T17:03:01.406Z,97785.50
2023-06-06T17:06:05.502Z,97787.13
2023-06-06T17:09:10.248Z,97793.03
2023-06-06T17:12:12.983Z,97795.22
2023-06-06T17:15:15.402Z,97763.03
2023-06-06T17:18:17.799Z,97796.84
2023-06-06T17:21:23.635Z,97807.59
2023-06-06T17:24:26.353Z,97806.00
2023-06-06T17:27:31.133Z,97797.66
2023-06-06T17:30:34.322Z,97784.53
2023-06-06T17:33:37.845Z,97794.72
2023-06-06T17:36:42.130Z,97796.88
2023-06-06T17:39:44.697Z,97806.03
2023-06-06T17:42:51.426Z,97809.50
2023-06-06T17:45:54.419Z,97800.91
2023-06-06T17:49:07.589Z,97799.59
2023-06-06T17:52:11.209Z,97799.06
2023-06-06T17:55:14.285Z,97799.59
2023-06-06T17:58:17.333Z,97805.00
2023-06-06T18:01:21.698Z,97816.25
2023-06-06T18:04:24.100Z,97816.81
2023-06-06T18:07:27.465Z,97821.41
2023-06-06T18:10:30.290Z,97823.78
2023-06-06T18:13:32.566Z,97831.84
2023-06-06T18:16:35.517Z,97829.44
2023-06-06T18:19:37.820Z,97828.63
2023-06-06T18:22:41.115Z,97829.19
2023-06-06T18:25:43.337Z,97833.75
2023-06-06T18:28:45.930Z,97836.97
2023-06-06T18:31:48.333Z,97842.88
2023-06-06T18:34:52.280Z,97828.66
2023-06-06T18:37:57.769Z,97846.66
2023-06-06T18:41:00.553Z,97821.41
2023-06-06T18:44:06.179Z,97845.59
2023-06-06T18:47:08.986Z,97849.34
2023-06-06T18:50:12.012Z,97848.81
2023-06-06T18:53:15.342Z,97825.69
2023-06-06T18:56:18.097Z,97837.53
2023-06-06T18:59:23.147Z,97845.03
2023-06-06T19:02:25.423Z,97842.63
2023-06-06T19:05:27.814Z,97842.09
2023-06-06T19:08:30.143Z,97839.97
2023-06-06T19:11:32.765Z,97850.94
2023-06-06T19:14:34.985Z,97846.13
2023-06-06T19:17:39.356Z,97842.38
2023-06-06T19:20:41.988Z,97853.09
2023-06-06T19:23:44.552Z,97812.56
2023-06-06T19:26:48.984Z,97807.72
2023-06-06T19:29:51.582Z,97847.47
2023-06-06T19:32:54.186Z,97849.34
2023-06-06T19:35:56.788Z,97854.19
2023-06-06T19:38:59.462Z,97852.03
2023-06-06T19:42:01.950Z,97847.44
2023-06-06T19:45:04.656Z,97860.88
2023-06-06T19:48:07.830Z,97839.13
2023-06-06T19:51:10.183Z,97827.06
2023-06-06T19:54:12.950Z,97859.28
2023-06-06T19:57:15.383Z,97861.94
2023-06-06T20:00:18.416Z,97860.59
2023-06-06T20:03:21.389Z,97845.28
2023-06-06T20:06:23.655Z,97856.03
2023-06-06T20:09:26.125Z,97859.50
2023-06-06T20:12:29.652Z,97860.59
2023-06-06T20:15:32.032Z,97848.75
2023-06-06T20:18:34.344Z,97857.66
2023-06-06T20:21:37.110Z,97858.72
2023-06-06T20:24:39.582Z,97865.16
2023-06-06T20:27:41.951Z,97860.88
2023-06-06T20:30:48.160Z,97840.47
2023-06-06T20:33:50.906Z,97865.44
2023-06-06T20:36:53.577Z,97866.75
2023-06-06T20:40:14.455Z,97861.66
2023-06-06T20:43:17.225Z,97861.13
2023-06-06T20:46:21.882Z,97865.94
2023-06-06T20:49:26.612Z,97835.59
2023-06-06T20:52:31.269Z,97835.59
2023-06-06T20:55:34.136Z,97854.66
2023-06-06T20:58:36.579Z,97865.66
2023-06-06T21:01:38.833Z,97747.19
2023-06-06T21:04:41.204Z,97859.22
2023-06-06T21:07:43.989Z,97861.63
2023-06-06T21:10:48.076Z,97852.47
2023-06-06T21:13:50.805Z,97865.91
2023-06-06T21:16:53.202Z,97861.59
2023-06-06T21:19:56.882Z,97862.91
2023-06-06T21:23:00.038Z,97871.22
2023-06-06T21:26:02.333Z,97859.13
2023-06-06T21:29:05.089Z,97866.66
2023-06-06T21:32:07.938Z,97836.31
2023-06-06T21:35:10.536Z,97855.38
2023-06-06T21:38:12.889Z,97832.75
2023-06-06T21:41:16.780Z,97811.78
2023-06-06T21:44:19.142Z,97858.28
2023-06-06T21:47:21.691Z,97861.25
2023-06-06T21:50:24.133Z,97836.22
2023-06-06T21:53:26.502Z,97854.75
2023-06-06T21:56:29.211Z,97856.91
2023-06-06T21:59:32.067Z,97853.94
2023-06-06T22:02:35.739Z,97863.56
2023-06-06T22:05:38.454Z,97860.59
2023-06-06T22:08:40.825Z,97856.84
2023-06-06T22:11:44.311Z,97857.34
2023-06-06T22:14:47.849Z,97858.44
2023-06-06T22:17:50.296Z,97851.47
2023-06-06T22:20:52.806Z,97843.44
2023-06-06T22:23:55.146Z,97845.28
2023-06-06T22:26:57.700Z,97846.91
2023-06-06T22:30:00.288Z,97819.78
2023-06-06T22:33:03.401Z,97820.88
2023-06-06T22:36:06.972Z,97837.00
2023-06-06T22:39:09.982Z,97789.69
2023-06-06T22:42:12.233Z,97837.78
2023-06-06T22:45:14.642Z,97835.13
2023-06-06T22:48:16.997Z,97830.56
2023-06-06T22:51:19.392Z,97797.53
2023-06-06T22:54:21.657Z,97827.88
2023-06-06T22:57:24.327Z,97828.94
2023-06-06T23:00:27.377Z,97827.06
2023-06-06T23:03:29.838Z,97804.22
2023-06-06T23:06:32.354Z,97834.53
2023-06-06T23:09:34.640Z,97818.44
2023-06-06T23:12:39.982Z,97817.66
2023-06-06T23:15:42.897Z,97815.25
2023-06-06T23:18:45.500Z,97810.69
2023-06-06T23:21:47.740Z,97818.44
2023-06-06T23:24:50.158Z,97813.91
2023-06-06T23:27:52.854Z,97811.22
2023-06-06T23:30:55.269Z,97803.44
2023-06-06T23:33:57.575Z,97788.41
2023-06-06T23:37:00.117Z,97802.38
2023-06-06T23:40:02.915Z,97805.06
2023-06-06T23:43:05.908Z,97802.38
2023-06-06T23:46:08.122Z,97801.56
2023-06-06T23:49:11.331Z,97781.19
2023-06-06T23:52:14.310Z,97771.50
2023-06-06T23:55:16.678Z,97798.38
2023-06-06T23:58:19.423Z,97793.53
